Time,TemperatureF,DewpointF,PressureIn,WindDirection,WindDirectionDegrees,WindSpeedMPH,WindSpeedGustMPH,Humidity,HourlyPrecipIn,Conditions,Clouds,dailyrainin,SoftwareType,DateUTC
2013-07-01 00:14:00,68.3,62.9,29.73,NW,306,0.0,2.0,83,0.00,BKN,,0.00,WeatherDisplay:10.37,2013-07-01 04:14:00,
2013-07-01 00:29:00,67.8,62.7,29.73,NW,306,0.0,0.0,84,0.00,BKN,,0.00,WeatherDisplay:10.37,2013-07-01 04:29:00,
2013-07-01 00:44:00,67.1,62.1,29.73,NW,306,0.0,0.0,84,0.00,BKN,,0.00,WeatherDisplay:10.37,2013-07-01 04:44:00,
2013-07-01 00:59:00,66.4,61.7,29.72,NW,306,0.0,0.0,85,0.00,BKN,,0.00,WeatherDisplay:10.37,2013-07-01 04:59:00,
2013-07-01 01:14:00,65.7,61.1,29.72,NW,306,0.0,0.0,85,0.00,BKN,,0.00,WeatherDisplay:10.37,2013-07-01 05:14:00,
2013-07-01 01:29:00,65.1,60.5,29.71,NW,306,0.0,0.0,85,0.00,BKN,,0.00,WeatherDisplay:10.37,2013-07-01 05:29:00,
2013-07-01 01:44:00,64.6,60.3,29.71,NW,306,0.0,0.0,86,0.00,OVC,,0.00,WeatherDisplay:10.37,2013-07-01 05:44:00,
2013-07-01 01:59:00,64.0,59.7,29.71,NW,306,0.0,0.0,86,0.00,OVC,,0.00,WeatherDisplay:10.37,2013-07-01 05:59:00,
2013-07-01 02:14:00,63.6,59.3,29.72,NW,306,0.0,0.0,86,0.00,OVC,,0.00,WeatherDisplay:10.37,2013-07-01 06:14:00,
2013-07-01 02:29:00,63.3,59.0,29.72,NW,306,0.0,0.0,86,0.00,OVC,,0.00,WeatherDisplay:10.37,2013-07-01 06:29:00,
2013-07-01 02:44:00,63.3,59.4,29.72,NW,306,0.0,0.0,87,0.00,SCT,,0.00,WeatherDisplay:10.37,2013-07-01 06:44:00,
2013-07-01 02:59:00,63.3,59.3,29.72,NW,306,0.0,0.0,87,0.00,SCT,,0.00,WeatherDisplay:10.37,2013-07-01 06:59:00,
2013-07-01 03:15:00,63.2,59.3,29.71,NW,306,0.0,0.0,87,0.00,SCT,,0.00,WeatherDisplay:10.37,2013-07-01 07:15:00,
2013-07-01 03:29:00,63.2,59.3,29.71,NW,306,0.0,0.0,87,0.00,SCT,,0.00,WeatherDisplay:10.37,2013-07-01 07:29:00,
2013-07-01 03:44:00,63.5,59.5,29.71,NW,306,0.0,1.0,87,0.00,OVC,,0.00,WeatherDisplay:10.37,2013-07-01 07:44:00,
2013-07-01 03:59:00,63.4,59.8,29.71,NW,306,0.0,0.0,88,0.00,OVC,,0.00,WeatherDisplay:10.37,2013-07-01 07:59:00,
2013-07-01 06:14:00,61.6,58.0,29.75,NW,306,0.0,1.0,88,0.00,OVC,,0.00,WeatherDisplay:10.37,2013-07-01 10:14:00,
2013-07-01 06:29:00,61.6,58.0,29.75,NW,306,0.0,0.0,88,0.00,OVC,,0.00,WeatherDisplay:10.37,2013-07-01 10:29:00,
2013-07-01 06:44:00,61.7,58.1,29.75,NW,306,0.0,0.0,88,0.00,-RA,,0.00,WeatherDisplay:10.37,2013-07-01 10:44:00,
2013-07-01 06:59:00,61.8,58.2,29.75,NW,306,0.0,1.0,88,0.00,-RA,,0.00,WeatherDisplay:10.37,2013-07-01 10:59:00,
2013-07-01 07:14:00,62.1,58.5,29.76,NW,306,0.0,0.0,88,0.00,-RA,,0.00,WeatherDisplay:10.37,2013-07-01 11:14:00,
2013-07-01 07:29:00,62.7,59.4,29.76,NW,306,0.0,1.0,89,0.00,-RA,,0.00,WeatherDisplay:10.37,2013-07-01 11:29:00,
2013-07-01 07:44:00,63.2,59.9,29.77,NW,313,0.0,2.0,89,0.00,OVC,,0.00,WeatherDisplay:10.37,2013-07-01 11:44:00,
2013-07-01 07:59:00,63.4,60.1,29.77,NW,314,1.0,2.0,89,0.00,OVC,,0.00,WeatherDisplay:10.37,2013-07-01 11:59:00,
2013-07-01 08:14:00,63.6,60.3,29.77,NW,315,0.0,2.0,89,0.00,OVC,,0.00,WeatherDisplay:10.37,2013-07-01 12:14:00,
2013-07-01 08:29:00,64.1,60.8,29.77,NW,316,0.0,1.0,89,0.00,OVC,,0.00,WeatherDisplay:10.37,2013-07-01 12:29:00,
2013-07-01 08:44:00,65.0,61.7,29.77,NW,316,0.0,2.0,89,0.00,BKN,,0.00,WeatherDisplay:10.37,2013-07-01 12:44:00,
2013-07-01 08:59:00,65.7,62.4,29.77,NNW,331,0.0,2.0,89,0.00,BKN,,0.00,WeatherDisplay:10.37,2013-07-01 12:59:00,
2013-07-01 09:29:00,68.0,64.3,29.77,NNW,331,0.0,3.0,88,0.00,BKN,,0.00,WeatherDisplay:10.37,2013-07-01 13:29:00,
2013-07-01 09:44:00,70.2,65.4,29.77,NNW,329,1.0,3.0,85,0.00,FEW,,0.00,WeatherDisplay:10.37,2013-07-01 13:44:00,
2013-07-01 09:59:00,72.3,66.8,29.78,West,270,5.0,7.0,83,0.00,FEW,,0.00,WeatherDisplay:10.37,2013-07-01 13:59:00,
2013-07-01 10:14:00,71.6,66.2,29.78,WNW,292,0.0,6.0,83,0.00,FEW,,0.00,WeatherDisplay:10.37,2013-07-01 14:14:00,
2013-07-01 10:29:00,70.8,65.8,29.78,NW,316,1.0,4.0,84,0.00,FEW,,0.00,WeatherDisplay:10.37,2013-07-01 14:29:00,
2013-07-01 10:44:00,73.6,67.8,29.78,East,80,0.0,5.0,82,0.00,BKN,,0.00,WeatherDisplay:10.37,2013-07-01 14:44:00,
2013-07-01 10:59:00,74.8,66.8,29.78,ENE,59,1.0,4.0,76,0.00,BKN,,0.00,WeatherDisplay:10.37,2013-07-01 14:59:00,
2013-07-01 11:14:00,74.9,67.2,29.78,ENE,58,0.0,6.0,77,0.00,BKN,,0.00,WeatherDisplay:10.37,2013-07-01 15:14:00,
2013-07-01 11:29:00,75.6,66.3,29.79,NNE,27,2.0,6.0,73,0.00,BKN,,0.00,WeatherDisplay:10.37,2013-07-01 15:29:00,
2013-07-01 11:44:00,76.2,68.5,29.78,WNW,296,2.0,6.0,77,0.00,BKN,,0.00,WeatherDisplay:10.37,2013-07-01 15:44:00,
2013-07-01 11:59:00,77.3,65.9,29.78,NNE,16,2.0,6.0,68,0.00,BKN,,0.00,WeatherDisplay:10.37,2013-07-01 15:59:00,
2013-07-01 12:14:00,77.7,64.5,29.77,ENE,78,2.0,10.0,64,0.00,BKN,,0.00,WeatherDisplay:10.37,2013-07-01 16:14:00,
2013-07-01 12:29:00,77.8,65.1,29.76,NNE,26,0.0,5.0,65,0.00,BKN,,0.00,WeatherDisplay:10.37,2013-07-01 16:29:00,
2013-07-01 12:44:00,78.8,63.7,29.76,NE,39,3.0,10.0,60,0.00,FEW,,0.00,WeatherDisplay:10.37,2013-07-01 16:44:00,
2013-07-01 12:59:00,77.6,63.5,29.76,NNE,20,1.0,4.0,62,0.00,FEW,,0.00,WeatherDisplay:10.37,2013-07-01 16:59:00,
2013-07-01 13:15:00,78.2,65.5,29.75,NW,305,0.0,9.0,65,0.00,FEW,,0.00,WeatherDisplay:10.37,2013-07-01 17:15:00,
2013-07-01 13:29:00,76.8,63.2,29.75,NE,49,1.0,5.0,63,0.00,FEW,,0.00,WeatherDisplay:10.37,2013-07-01 17:29:00,
2013-07-01 13:44:00,75.6,67.1,29.75,North,3,0.0,4.0,75,0.00,BKN,,0.00,WeatherDisplay:10.37,2013-07-01 17:44:00,
2013-07-01 13:59:00,77.2,65.4,29.74,NE,35,1.0,4.0,67,0.00,BKN,,0.00,WeatherDisplay:10.37,2013-07-01 17:59:00,
2013-07-01 14:14:00,79.4,62.9,29.74,West,273,2.0,10.0,57,0.00,BKN,,0.00,WeatherDisplay:10.37,2013-07-01 18:14:00,
2013-07-01 14:29:00,80.3,65.6,29.73,NNW,344,2.0,5.0,61,0.00,BKN,,0.00,WeatherDisplay:10.37,2013-07-01 18:29:00,
2013-07-01 14:44:00,80.4,65.7,29.73,NE,50,5.0,12.0,61,0.00,BKN,,0.00,WeatherDisplay:10.37,2013-07-01 18:44:00,
2013-07-01 14:59:00,80.2,63.1,29.74,NNE,29,1.0,14.0,56,0.00,BKN,,0.00,WeatherDisplay:10.37,2013-07-01 18:59:00,
2013-07-01 15:14:00,78.9,64.8,29.74,WNW,294,1.0,12.0,62,0.00,BKN,,0.00,WeatherDisplay:10.37,2013-07-01 19:14:00,
2013-07-01 15:29:00,77.7,64.1,29.74,WNW,303,5.0,9.0,63,0.00,BKN,,0.00,WeatherDisplay:10.37,2013-07-01 19:29:00,
2013-07-01 15:45:00,76.2,65.7,29.74,West,270,1.0,14.0,70,0.00,BKN,,0.00,WeatherDisplay:10.37,2013-07-01 19:45:00,
2013-07-01 15:59:00,75.9,65.0,29.74,NNW,336,0.0,7.0,69,0.00,BKN,,0.00,WeatherDisplay:10.37,2013-07-01 19:59:00,
2013-07-01 16:14:00,76.0,66.3,29.74,WNW,283,0.0,3.0,72,0.00,BKN,,0.00,WeatherDisplay:10.37,2013-07-01 20:14:00,
2013-07-01 16:29:00,75.5,67.0,29.76,NE,36,0.0,8.0,75,0.00,BKN,,0.00,WeatherDisplay:10.37,2013-07-01 20:29:00,
2013-07-01 16:44:00,72.8,64.8,29.77,WNW,292,5.0,15.0,76,0.00,BKN,,0.00,WeatherDisplay:10.37,2013-07-01 20:44:00,
2013-07-01 16:59:00,69.8,64.1,29.77,WSW,258,0.0,7.0,82,0.00,BKN,,0.00,WeatherDisplay:10.37,2013-07-01 20:59:00,
2013-07-01 17:14:00,68.7,63.7,29.78,WNW,285,0.0,6.0,84,0.00,BKN,,0.00,WeatherDisplay:10.37,2013-07-01 21:14:00,
2013-07-01 17:29:00,68.1,63.4,29.79,WNW,293,0.0,9.0,85,0.00,BKN,,0.00,WeatherDisplay:10.37,2013-07-01 21:29:00,
2013-07-01 17:44:00,66.8,62.1,29.79,NE,50,0.0,9.0,85,0.00,SCT,,0.00,WeatherDisplay:10.37,2013-07-01 21:44:00,
2013-07-01 17:59:00,66.8,62.5,29.79,NE,42,1.0,3.0,86,0.00,SCT,,0.00,WeatherDisplay:10.37,2013-07-01 21:59:00,
2013-07-01 18:14:00,66.8,62.5,29.81,NE,37,3.0,5.0,86,0.00,SCT,,0.00,WeatherDisplay:10.37,2013-07-01 22:14:00,
2013-07-01 18:29:00,65.9,61.6,29.81,NW,322,2.0,5.0,86,0.00,SCT,,0.00,WeatherDisplay:10.37,2013-07-01 22:29:00,
2013-07-01 18:44:00,65.2,60.9,29.81,NE,41,0.0,6.0,86,0.00,BKN,,0.00,WeatherDisplay:10.37,2013-07-01 22:44:00,
2013-07-01 18:59:00,65.2,60.9,29.81,WNW,291,0.0,2.0,86,0.00,BKN,,0.00,WeatherDisplay:10.37,2013-07-01 22:59:00,
2013-07-01 19:14:00,65.3,61.0,29.82,NE,47,0.0,1.0,86,0.00,BKN,,0.00,WeatherDisplay:10.37,2013-07-01 23:14:00,
2013-07-01 19:29:00,65.3,61.0,29.83,NE,47,0.0,0.0,86,0.00,BKN,,0.00,WeatherDisplay:10.37,2013-07-01 23:29:00,
2013-07-01 19:44:00,65.4,61.4,29.83,NE,47,0.0,0.0,87,0.00, +RA,,0.00,WeatherDisplay:10.37,2013-07-01 23:44:00,
2013-07-01 19:59:00,65.3,61.3,29.83,NE,47,0.0,1.0,87,0.00, +RA,,0.00,WeatherDisplay:10.37,2013-07-01 23:59:00,
2013-07-01 20:29:00,65.0,61.0,29.83,NE,46,0.0,2.0,87,0.00, +RA,,0.00,WeatherDisplay:10.37,2013-07-02 00:29:00,
2013-07-01 20:44:00,64.9,60.9,29.83,NE,47,0.0,0.0,87,0.00, +RA,,0.00,WeatherDisplay:10.37,2013-07-02 00:44:00,
2013-07-01 20:59:00,64.7,60.7,29.83,NE,47,0.0,0.0,87,0.00, +RA,,0.00,WeatherDisplay:10.37,2013-07-02 00:59:00,
2013-07-01 21:14:00,64.4,60.5,29.83,NE,47,0.0,1.0,87,0.00, +RA,,0.00,WeatherDisplay:10.37,2013-07-02 01:14:00,
2013-07-01 21:29:00,63.9,60.0,29.84,NE,47,0.0,2.0,87,0.00, +RA,,0.00,WeatherDisplay:10.37,2013-07-02 01:29:00,
2013-07-01 21:44:00,63.5,59.6,29.84,NE,47,0.0,0.0,87,0.00,-RA,,0.00,WeatherDisplay:10.37,2013-07-02 01:44:00,
2013-07-01 22:15:00,62.7,58.8,29.85,NE,47,0.0,0.0,87,0.00,-RA,,0.00,WeatherDisplay:10.37,2013-07-02 02:15:00,
2013-07-01 22:44:00,62.0,58.1,29.86,NE,47,0.0,1.0,87,0.00,OVC,,0.00,WeatherDisplay:10.37,2013-07-02 02:44:00,
2013-07-01 22:59:00,61.6,58.0,29.86,NE,47,0.0,0.0,88,0.00,OVC,,0.00,WeatherDisplay:10.37,2013-07-02 02:59:00,
2013-07-01 23:14:00,61.4,57.8,29.86,NE,47,0.0,0.0,88,0.00,OVC,,0.00,WeatherDisplay:10.37,2013-07-02 03:14:00,
2013-07-01 23:29:00,61.3,57.7,29.87,NE,47,0.0,0.0,88,0.00,OVC,,0.00,WeatherDisplay:10.37,2013-07-02 03:29:00,
2013-07-01 23:44:00,61.3,57.7,29.87,NE,47,0.0,0.0,88,0.00,OVC,,0.00,WeatherDisplay:10.37,2013-07-02 03:44:00,
2013-07-01 23:59:00,61.3,57.7,29.87,NE,47,0.0,0.0,88,0.00,OVC,,0.00,WeatherDisplay:10.37,2013-07-02 03:59:00,